Time;durP1;ratioP1;P1;durP2;ratioP2;P2;SDS_P1;SDS_P2;PMS_P1;PMS_P2;Temp;Humidity;BMP_temperature;BMP_pressure;BME280_temperature;BME280_humidity;BME280_pressure;Samples;Min_cycle;Max_cycle;Signal;HPM_P1;HPM_P2
2024/02/18 00:02:12;;;;;;;14.07;11.30;;;9.90;99.90;;;;;;5045858;28;20194;-78
2024/02/18 00:04:38;;;;;;;13.23;10.03;;;9.90;99.90;;;;;;5026687;28;20466;-76
2024/02/18 00:07:03;;;;;;;16.57;11.37;;;9.80;99.90;;;;;;5026105;28;20436;-75
2024/02/18 00:09:29;;;;;;;17.23;12.30;;;9.80;99.90;;;;;;5059949;28;20274;-75
2024/02/18 00:11:55;;;;;;;14.63;11.43;;;9.80;99.90;;;;;;5060497;28;20170;-76
2024/02/18 00:14:21;;;;;;;14.57;10.80;;;9.80;99.90;;;;;;5071410;28;20212;-76
2024/02/18 00:16:47;;;;;;;14.90;11.73;;;9.80;99.90;;;;;;5065050;28;20210;-76
2024/02/18 00:19:12;;;;;;;15.17;11.13;;;9.80;99.90;;;;;;5026331;28;20428;-76
2024/02/18 00:21:38;;;;;;;19.23;11.57;;;9.70;99.90;;;;;;5065113;28;20186;-73
2024/02/18 00:24:04;;;;;;;20.80;12.30;;;9.70;99.90;;;;;;5048874;28;20198;-75
2024/02/18 00:26:30;;;;;;;16.70;11.20;;;9.70;99.90;;;;;;5048241;28;20473;-76
2024/02/18 00:28:56;;;;;;;16.10;12.07;;;9.70;99.90;;;;;;5039615;28;20464;-75
2024/02/18 00:31:22;;;;;;;17.00;12.53;;;9.70;99.90;;;;;;5061636;28;20476;-76
2024/02/18 00:33:48;;;;;;;14.10;11.10;;;9.70;99.90;;;;;;5032392;28;20220;-76
2024/02/18 00:36:13;;;;;;;18.10;12.77;;;9.60;99.90;;;;;;5049873;28;20249;-74
2024/02/18 00:38:39;;;;;;;15.60;12.13;;;9.60;99.90;;;;;;5053851;28;20162;-74
2024/02/18 00:41:06;;;;;;;16.23;11.87;;;9.60;99.90;;;;;;5046492;28;20171;-76
2024/02/18 00:43:33;;;;;;;13.27;10.60;;;9.60;99.90;;;;;;5036305;28;20553;-75
2024/02/18 00:45:59;;;;;;;18.17;10.77;;;9.60;99.90;;;;;;5035160;28;20487;-75
2024/02/18 00:48:24;;;;;;;10.33;9.13;;;9.70;99.90;;;;;;5036909;28;20421;-77
2024/02/18 00:50:50;;;;;;;10.97;9.10;;;9.60;99.90;;;;;;5037795;28;20194;-74
2024/02/18 00:53:16;;;;;;;11.67;8.50;;;9.60;99.90;;;;;;5062303;28;20869;-76
2024/02/18 00:55:43;;;;;;;12.10;9.70;;;9.60;99.90;;;;;;5018695;28;20233;-76
2024/02/18 00:58:12;;;;;;;11.77;8.53;;;9.60;99.90;;;;;;5031975;28;20214;-75
2024/02/18 01:00:41;;;;;;;11.00;9.03;;;9.60;99.90;;;;;;5058465;28;20425;-75
2024/02/18 01:03:08;;;;;;;11.47;9.20;;;9.60;99.90;;;;;;5040367;28;20432;-75
2024/02/18 01:05:33;;;;;;;12.03;8.23;;;9.60;99.90;;;;;;5021277;28;20445;-75
2024/02/18 01:07:59;;;;;;;10.00;8.30;;;9.70;99.90;;;;;;5052645;28;20850;-78
2024/02/18 01:10:25;;;;;;;8.83;7.93;;;9.60;99.90;;;;;;5027733;28;20218;-76
2024/02/18 01:12:51;;;;;;;11.93;7.70;;;9.60;99.90;;;;;;5017859;28;20197;-77
2024/02/18 01:15:17;;;;;;;9.87;8.57;;;9.60;99.90;;;;;;5064319;28;20404;-73
2024/02/18 01:17:43;;;;;;;12.33;9.10;;;9.60;99.90;;;;;;4995958;28;20549;-74
2024/02/18 01:20:09;;;;;;;12.53;9.83;;;9.60;99.90;;;;;;4995992;28;20486;-74
2024/02/18 01:22:34;;;;;;;15.20;9.60;;;9.60;99.90;;;;;;4990305;28;20654;-74
2024/02/18 01:25:00;;;;;;;13.13;9.03;;;9.60;99.90;;;;;;4994751;28;20753;-76
2024/02/18 01:27:26;;;;;;;9.33;8.30;;;9.70;99.90;;;;;;4994863;28;20455;-78
2024/02/18 01:29:52;;;;;;;12.33;8.77;;;9.70;99.90;;;;;;4978129;28;20941;-74
2024/02/18 01:32:17;;;;;;;10.97;8.83;;;9.70;99.90;;;;;;4985135;28;20236;-73
2024/02/18 01:34:43;;;;;;;10.17;7.40;;;9.70;99.90;;;;;;4974996;28;20192;-73
2024/02/18 01:37:09;;;;;;;8.17;6.13;;;9.70;99.90;;;;;;4975400;28;20371;-74
2024/02/18 01:39:35;;;;;;;9.10;6.93;;;9.70;99.90;;;;;;4984126;28;20196;-74
2024/02/18 01:42:01;;;;;;;10.13;7.07;;;9.70;99.90;;;;;;4988663;28;20243;-76
2024/02/18 01:44:26;;;;;;;9.63;7.00;;;9.70;99.90;;;;;;4982728;28;20416;-74
2024/02/18 01:46:52;;;;;;;8.70;6.80;;;9.70;99.90;;;;;;4986391;28;20208;-75
2024/02/18 01:49:18;;;;;;;11.57;7.80;;;9.70;99.90;;;;;;4993270;28;20224;-73
2024/02/18 01:51:45;;;;;;;9.77;6.77;;;9.70;99.90;;;;;;4970540;28;20427;-74
2024/02/18 01:54:11;;;;;;;10.90;6.40;;;9.70;99.90;;;;;;4983770;28;20497;-74
2024/02/18 01:56:40;;;;;;;7.90;5.97;;;9.70;99.90;;;;;;5046758;28;20437;-74
2024/02/18 01:59:06;;;;;;;7.40;6.20;;;9.80;99.90;;;;;;5054969;28;20400;-75
2024/02/18 02:01:33;;;;;;;10.03;6.43;;;9.80;99.90;;;;;;5039214;28;20431;-72
2024/02/18 02:04:00;;;;;;;9.57;6.47;;;9.80;99.90;;;;;;5040531;28;20190;-74
2024/02/18 02:06:29;;;;;;;10.50;7.03;;;9.80;99.90;;;;;;5023559;28;20437;-74
2024/02/18 02:08:56;;;;;;;10.40;6.60;;;9.80;99.90;;;;;;5038739;28;20461;-74
2024/02/18 02:11:21;;;;;;;9.27;6.60;;;9.80;99.90;;;;;;5050419;28;21441;-76
2024/02/18 02:13:47;;;;;;;11.47;6.83;;;9.80;99.90;;;;;;5040607;28;20480;-74
2024/02/18 02:16:14;;;;;;;8.73;6.80;;;9.80;99.90;;;;;;5055166;28;20289;-74
2024/02/18 02:18:40;;;;;;;11.40;7.13;;;9.80;99.90;;;;;;5037444;28;20256;-75
2024/02/18 02:21:06;;;;;;;12.60;6.50;;;9.70;99.90;;;;;;5056813;28;20412;-76
2024/02/18 02:23:34;;;;;;;14.73;8.77;;;9.70;99.90;;;;;;5024339;28;20537;-73
2024/02/18 02:26:01;;;;;;;15.83;8.80;;;9.60;99.90;;;;;;5056314;28;20497;-73
2024/02/18 02:28:29;;;;;;;10.87;8.53;;;9.60;99.90;;;;;;5046551;28;20520;-74
2024/02/18 02:30:55;;;;;;;15.03;9.80;;;9.50;99.90;;;;;;5031953;28;20464;-74
2024/02/18 02:33:22;;;;;;;13.40;8.60;;;9.40;99.90;;;;;;5037101;28;20488;-74
2024/02/18 02:35:48;;;;;;;19.03;9.47;;;9.30;99.90;;;;;;5051828;28;20485;-73
2024/02/18 02:38:14;;;;;;;14.53;9.33;;;9.20;99.90;;;;;;5034489;28;20464;-74
2024/02/18 02:40:40;;;;;;;14.77;9.50;;;9.10;99.90;;;;;;5057563;28;20202;-75
2024/02/18 02:43:06;;;;;;;16.97;10.40;;;9.00;99.90;;;;;;5031181;28;20384;-77
2024/02/18 02:45:33;;;;;;;14.60;9.33;;;9.00;99.90;;;;;;5048403;28;20452;-72
2024/02/18 02:47:58;;;;;;;11.70;9.33;;;8.90;99.90;;;;;;5049985;28;20452;-77
2024/02/18 02:50:24;;;;;;;9.43;8.20;;;8.90;99.90;;;;;;5050825;28;20460;-74
2024/02/18 02:52:50;;;;;;;12.23;8.73;;;8.80;99.90;;;;;;5032838;28;20532;-72
2024/02/18 02:55:15;;;;;;;14.03;8.60;;;8.70;99.90;;;;;;5051203;28;20231;-73
2024/02/18 02:57:41;;;;;;;14.60;8.20;;;8.70;99.90;;;;;;5051458;28;20193;-74
2024/02/18 03:00:10;;;;;;;11.10;6.73;;;8.60;99.90;;;;;;5040977;28;20530;-73
2024/02/18 03:02:39;;;;;;;7.10;5.73;;;8.60;99.90;;;;;;5048234;28;20186;-75
2024/02/18 03:05:06;;;;;;;8.97;6.33;;;8.60;99.90;;;;;;5043893;28;20524;-74
2024/02/18 03:07:32;;;;;;;8.90;6.40;;;8.50;99.90;;;;;;5049779;28;20551;-74
2024/02/18 03:09:57;;;;;;;8.30;6.50;;;8.50;99.90;;;;;;5058075;28;20455;-75
2024/02/18 03:12:23;;;;;;;7.60;6.10;;;8.50;99.90;;;;;;5036491;28;20802;-74
2024/02/18 03:14:49;;;;;;;9.83;6.40;;;8.50;99.90;;;;;;5025256;28;20233;-75
2024/02/18 03:17:15;;;;;;;8.23;5.90;;;8.50;99.90;;;;;;5058434;28;20436;-72
2024/02/18 03:19:41;;;;;;;8.43;5.87;;;8.50;99.90;;;;;;5036270;28;20432;-75
2024/02/18 03:22:07;;;;;;;7.63;5.80;;;8.50;99.90;;;;;;5048494;28;20205;-74
2024/02/18 03:24:33;;;;;;;9.87;5.90;;;8.50;99.90;;;;;;5046904;28;20520;-73
2024/02/18 03:26:59;;;;;;;6.70;4.90;;;8.50;99.90;;;;;;5047791;28;20458;-73
2024/02/18 03:29:25;;;;;;;6.23;5.47;;;8.50;99.90;;;;;;5050600;28;20277;-73
2024/02/18 03:31:55;;;;;;;7.43;6.37;;;8.50;99.90;;;;;;5057424;28;20477;-74
2024/02/18 03:34:21;;;;;;;5.70;5.10;;;8.50;99.90;;;;;;5052743;28;20201;-74
2024/02/18 03:36:47;;;;;;;6.23;5.43;;;8.50;99.90;;;;;;5051267;28;20667;-72
2024/02/18 03:39:13;;;;;;;6.63;5.47;;;8.50;99.90;;;;;;5032895;28;20417;-74
2024/02/18 03:41:40;;;;;;;9.70;5.07;;;8.50;99.90;;;;;;5050191;28;20186;-73
2024/02/18 03:44:05;;;;;;;6.93;4.90;;;8.50;99.90;;;;;;5055968;28;20408;-72
2024/02/18 03:46:31;;;;;;;7.80;5.57;;;8.50;99.90;;;;;;5055025;28;20468;-72
2024/02/18 03:48:56;;;;;;;8.00;5.53;;;8.50;99.90;;;;;;5043553;28;20513;-74
2024/02/18 03:51:22;;;;;;;8.27;5.60;;;8.50;99.90;;;;;;5030024;28;20190;-71
2024/02/18 03:53:48;;;;;;;6.67;4.70;;;8.50;99.90;;;;;;5049476;28;20544;-73
2024/02/18 03:56:13;;;;;;;6.27;4.57;;;8.50;99.90;;;;;;5050136;28;20210;-73
2024/02/18 03:58:39;;;;;;;7.17;5.13;;;8.50;99.90;;;;;;5028169;28;20174;-74
2024/02/18 04:01:05;;;;;;;5.83;4.40;;;8.50;99.90;;;;;;5045512;28;20202;-74
2024/02/18 04:03:30;;;;;;;7.17;4.80;;;8.50;99.90;;;;;;5035900;28;20278;-73
2024/02/18 04:05:56;;;;;;;5.87;4.30;;;8.50;99.90;;;;;;5049237;28;20186;-73
2024/02/18 04:08:21;;;;;;;5.93;3.87;;;8.50;99.90;;;;;;5033933;28;20209;-73
2024/02/18 04:10:47;;;;;;;4.33;3.63;;;8.50;99.90;;;;;;5017245;28;20224;-73
2024/02/18 04:13:13;;;;;;;5.43;3.70;;;8.50;99.90;;;;;;5053595;28;20421;-73
2024/02/18 04:15:40;;;;;;;4.90;4.40;;;8.50;99.90;;;;;;5054084;28;20209;-74
2024/02/18 04:18:06;;;;;;;6.10;3.80;;;8.50;99.90;;;;;;5052295;28;20218;-73
2024/02/18 04:20:32;;;;;;;4.37;3.40;;;8.50;99.90;;;;;;5046239;28;20816;-73
2024/02/18 04:22:58;;;;;;;5.20;3.17;;;8.50;99.90;;;;;;5043661;28;20244;-73
2024/02/18 04:25:23;;;;;;;4.63;3.17;;;8.50;99.90;;;;;;5043942;28;20194;-72
2024/02/18 04:27:49;;;;;;;5.13;2.80;;;8.50;99.90;;;;;;5054067;28;20192;-73
2024/02/18 04:30:14;;;;;;;4.00;3.17;;;8.50;99.90;;;;;;5051771;28;20206;-73
2024/02/18 04:32:40;;;;;;;4.27;3.27;;;8.50;99.90;;;;;;5058398;28;20229;-73
2024/02/18 04:35:06;;;;;;;4.50;3.40;;;8.50;99.90;;;;;;5054720;28;20624;-72
2024/02/18 04:37:31;;;;;;;4.47;3.40;;;8.40;99.90;;;;;;5050533;28;20281;-72
2024/02/18 04:39:57;;;;;;;2.90;2.60;;;8.40;99.90;;;;;;5045863;28;20195;-73
2024/02/18 04:42:23;;;;;;;4.60;3.20;;;8.40;99.90;;;;;;5046369;28;20190;-74
2024/02/18 04:44:49;;;;;;;4.13;2.90;;;8.30;99.90;;;;;;5033950;28;20485;-73
2024/02/18 04:47:14;;;;;;;4.73;3.40;;;8.30;99.90;;;;;;5048217;28;20240;-73
2024/02/18 04:49:40;;;;;;;5.10;3.10;;;8.30;99.90;;;;;;5041804;28;20371;-74
2024/02/18 04:52:06;;;;;;;3.60;3.13;;;8.30;99.90;;;;;;5048529;28;20201;-74
2024/02/18 04:54:33;;;;;;;5.43;3.13;;;8.40;99.90;;;;;;5051866;28;20473;-73
2024/02/18 04:57:00;;;;;;;4.30;3.50;;;8.40;99.90;;;;;;5036460;28;20455;-72
2024/02/18 04:59:25;;;;;;;5.77;4.00;;;8.40;99.90;;;;;;5052533;28;20417;-74
2024/02/18 05:01:51;;;;;;;6.50;3.63;;;8.40;99.90;;;;;;5058410;28;20452;-74
2024/02/18 05:04:17;;;;;;;7.83;4.17;;;8.50;99.90;;;;;;5047455;28;20202;-73
2024/02/18 05:06:47;;;;;;;4.93;3.20;;;8.50;99.90;;;;;;5051672;28;20221;-73
2024/02/18 05:09:12;;;;;;;4.70;3.43;;;8.50;99.90;;;;;;5058291;28;20320;-73
2024/02/18 05:11:38;;;;;;;4.73;3.37;;;8.50;99.90;;;;;;5030239;28;20566;-71
2024/02/18 05:14:04;;;;;;;4.57;3.10;;;8.50;99.90;;;;;;5055830;28;20206;-74
2024/02/18 05:16:29;;;;;;;5.93;3.50;;;8.40;99.90;;;;;;5035895;28;20362;-73
2024/02/18 05:18:55;;;;;;;3.67;2.70;;;8.40;99.90;;;;;;5038705;28;20204;-74
2024/02/18 05:21:21;;;;;;;4.50;3.30;;;8.40;99.90;;;;;;5042413;28;20218;-74
2024/02/18 05:23:47;;;;;;;4.87;3.90;;;8.40;99.90;;;;;;5048506;28;20273;-72
2024/02/18 05:26:13;;;;;;;5.40;3.53;;;8.30;99.90;;;;;;5051629;28;20481;-74
2024/02/18 05:28:38;;;;;;;5.93;3.37;;;8.30;99.90;;;;;;5061454;28;20192;-73
2024/02/18 05:31:22;;;;;;;6.33;3.63;;;8.30;99.90;;;;;;5031072;28;20221;-74
2024/02/18 05:33:49;;;;;;;4.67;3.40;;;8.30;99.90;;;;;;5051697;28;20194;-73
2024/02/18 05:36:15;;;;;;;3.63;3.00;;;8.40;99.90;;;;;;5029298;28;20441;-72
2024/02/18 05:38:41;;;;;;;3.40;3.00;;;8.40;99.90;;;;;;5046018;28;20428;-74
2024/02/18 05:41:07;;;;;;;4.53;3.10;;;8.40;99.90;;;;;;5060912;28;20181;-73
2024/02/18 05:43:32;;;;;;;4.50;2.77;;;8.50;99.90;;;;;;5051316;28;20409;-72
2024/02/18 05:45:58;;;;;;;5.10;3.33;;;8.50;99.90;;;;;;5031466;28;20233;-72
2024/02/18 05:48:23;;;;;;;7.03;3.17;;;8.50;99.90;;;;;;5028261;28;20220;-72
2024/02/18 05:50:49;;;;;;;5.50;3.50;;;8.50;99.90;;;;;;5048888;28;20282;-76
2024/02/18 05:53:15;;;;;;;4.00;2.93;;;8.50;99.90;;;;;;5055150;28;20180;-71
2024/02/18 05:55:40;;;;;;;4.83;2.70;;;8.60;99.90;;;;;;5044704;28;20213;-72
2024/02/18 05:58:06;;;;;;;5.17;3.17;;;8.60;99.90;;;;;;5034985;28;20252;-74
2024/02/18 06:00:32;;;;;;;5.17;3.53;;;8.60;99.90;;;;;;5047899;28;20188;-74
2024/02/18 06:02:57;;;;;;;5.37;3.37;;;8.60;99.90;;;;;;5049513;28;20630;-73
2024/02/18 06:05:23;;;;;;;4.23;2.67;;;8.70;99.90;;;;;;5050862;28;20280;-75
2024/02/18 06:07:49;;;;;;;5.97;3.93;;;8.70;99.90;;;;;;5051792;28;20197;-75
2024/02/18 06:10:14;;;;;;;7.03;3.67;;;8.70;99.90;;;;;;5064276;28;20229;-73
2024/02/18 06:12:43;;;;;;;6.40;3.83;;;8.70;99.90;;;;;;5055833;28;20447;-73
2024/02/18 06:15:10;;;;;;;7.33;4.53;;;8.70;99.90;;;;;;5039243;28;20189;-71
2024/02/18 06:17:35;;;;;;;8.30;5.10;;;8.70;99.90;;;;;;5041992;28;20484;-73
2024/02/18 06:20:02;;;;;;;6.50;4.80;;;8.70;99.90;;;;;;5033358;28;20745;-77
2024/02/18 06:22:28;;;;;;;7.50;4.70;;;8.70;99.90;;;;;;5045720;28;20461;-73
2024/02/18 06:24:53;;;;;;;9.10;5.27;;;8.60;99.90;;;;;;5041841;28;20444;-74
2024/02/18 06:27:19;;;;;;;7.07;5.10;;;8.60;99.90;;;;;;5039207;28;20609;-73
2024/02/18 06:29:45;;;;;;;7.07;4.90;;;8.60;99.90;;;;;;5055031;28;20217;-72
2024/02/18 06:32:11;;;;;;;6.73;5.17;;;8.60;99.90;;;;;;5047193;28;20214;-74
2024/02/18 06:34:37;;;;;;;5.13;4.63;;;8.60;99.90;;;;;;5039547;28;20189;-72
2024/02/18 06:37:03;;;;;;;6.03;4.63;;;8.60;99.90;;;;;;5021966;28;20804;-72
2024/02/18 06:39:29;;;;;;;10.43;4.83;;;8.60;99.90;;;;;;5059217;28;20192;-72
2024/02/18 06:41:55;;;;;;;7.10;4.27;;;8.60;99.90;;;;;;5027405;28;20204;-73
2024/02/18 06:44:21;;;;;;;5.00;3.33;;;8.60;99.90;;;;;;5033839;28;20416;-73
2024/02/18 06:46:46;;;;;;;3.80;3.20;;;8.60;99.90;;;;;;5053792;28;20456;-74
2024/02/18 06:49:12;;;;;;;5.53;3.23;;;8.60;99.90;;;;;;5019220;28;20449;-73
2024/02/18 06:51:37;;;;;;;4.77;3.60;;;8.60;99.90;;;;;;5055074;28;20537;-73
2024/02/18 06:54:04;;;;;;;5.20;4.20;;;8.60;99.90;;;;;;5056310;28;20245;-73
2024/02/18 06:56:29;;;;;;;6.67;5.03;;;8.70;99.90;;;;;;5040490;28;20233;-72
2024/02/18 06:58:55;;;;;;;9.70;4.70;;;8.60;99.90;;;;;;5032774;28;20429;-74
2024/02/18 07:01:21;;;;;;;5.47;4.47;;;8.60;99.90;;;;;;5048971;28;20281;-73
2024/02/18 07:03:46;;;;;;;8.87;5.30;;;8.60;99.90;;;;;;5050680;28;20272;-74
2024/02/18 07:06:13;;;;;;;8.20;5.77;;;8.60;99.90;;;;;;5028565;28;20219;-74
2024/02/18 07:08:39;;;;;;;8.60;5.10;;;8.50;99.90;;;;;;5038825;28;20198;-73
2024/02/18 07:11:05;;;;;;;7.30;4.60;;;8.50;99.90;;;;;;5049943;28;20424;-74
2024/02/18 07:13:30;;;;;;;6.37;4.87;;;8.50;99.90;;;;;;5045976;28;20178;-74
2024/02/18 07:15:56;;;;;;;10.90;5.03;;;8.50;99.90;;;;;;5021244;28;20240;-73
2024/02/18 07:18:21;;;;;;;6.10;4.60;;;8.50;99.90;;;;;;5049203;28;20190;-72
2024/02/18 07:20:47;;;;;;;6.50;4.60;;;8.50;99.90;;;;;;5028385;28;20198;-73
2024/02/18 07:23:12;;;;;;;7.77;4.63;;;8.50;99.90;;;;;;5045736;28;20607;-72
2024/02/18 07:25:41;;;;;;;7.37;4.23;;;8.60;99.90;;;;;;5057374;28;20233;-73
2024/02/18 07:28:06;;;;;;;6.50;4.30;;;8.60;99.90;;;;;;5035944;28;20228;-76
2024/02/18 07:30:33;;;;;;;8.47;4.30;;;8.60;99.90;;;;;;5030804;28;20456;-73
2024/02/18 07:32:58;;;;;;;4.60;3.83;;;8.60;99.90;;;;;;5038674;28;20425;-72
2024/02/18 07:35:24;;;;;;;6.37;3.90;;;8.60;99.90;;;;;;5030024;28;20202;-75
2024/02/18 07:37:50;;;;;;;5.77;4.13;;;8.60;99.90;;;;;;5052198;28;20208;-74
2024/02/18 07:40:15;;;;;;;5.07;4.17;;;8.60;99.90;;;;;;5029378;28;20194;-74
2024/02/18 07:42:43;;;;;;;7.30;4.07;;;8.50;99.90;;;;;;5055310;28;20201;-73
2024/02/18 07:45:09;;;;;;;9.90;4.97;;;8.50;99.90;;;;;;5059270;28;20182;-74
2024/02/18 07:47:34;;;;;;;7.80;5.33;;;8.50;99.90;;;;;;5032830;28;20974;-74
2024/02/18 07:50:02;;;;;;;10.53;4.87;;;8.50;99.90;;;;;;5054937;28;20467;-74
2024/02/18 07:52:27;;;;;;;10.70;6.37;;;8.50;99.90;;;;;;5029900;28;20190;-74
2024/02/18 07:54:53;;;;;;;10.47;5.33;;;8.50;99.90;;;;;;5036808;28;20407;-73
2024/02/18 07:57:18;;;;;;;5.47;4.87;;;8.50;99.90;;;;;;5049136;28;20674;-73
2024/02/18 07:59:44;;;;;;;7.87;4.97;;;8.50;99.90;;;;;;5045562;28;20277;-73
2024/02/18 08:02:10;;;;;;;7.90;4.33;;;8.50;99.90;;;;;;5055108;28;20278;-72
2024/02/18 08:04:36;;;;;;;7.33;4.20;;;8.50;99.90;;;;;;5032609;28;20224;-74
2024/02/18 08:07:01;;;;;;;8.50;3.90;;;8.50;99.90;;;;;;5036900;28;20534;-74
2024/02/18 08:09:27;;;;;;;10.03;4.30;;;8.50;99.90;;;;;;5048236;28;20256;-73
2024/02/18 08:11:52;;;;;;;11.13;4.43;;;8.60;99.90;;;;;;5034373;28;20198;-73
2024/02/18 08:14:18;;;;;;;7.73;4.37;;;8.60;99.90;;;;;;5030606;28;20624;-72
2024/02/18 08:16:44;;;;;;;5.40;3.53;;;8.60;99.90;;;;;;5042716;28;20582;-73
2024/02/18 08:19:09;;;;;;;7.37;4.07;;;8.60;99.90;;;;;;5063245;28;20663;-74
2024/02/18 08:21:35;;;;;;;5.80;4.23;;;8.70;99.90;;;;;;5029920;28;20190;-73
2024/02/18 08:24:00;;;;;;;6.63;4.40;;;8.70;99.90;;;;;;5063853;28;20236;-76
2024/02/18 08:26:29;;;;;;;9.30;4.13;;;8.70;99.90;;;;;;5047519;28;20202;-75
2024/02/18 08:28:56;;;;;;;5.30;3.73;;;8.70;99.90;;;;;;5027988;28;20217;-75
2024/02/18 08:31:22;;;;;;;6.63;3.97;;;8.70;99.90;;;;;;5060653;28;20447;-75
2024/02/18 08:33:48;;;;;;;8.07;3.77;;;8.70;99.90;;;;;;5046406;28;20876;-74
2024/02/18 08:36:15;;;;;;;7.30;4.20;;;8.80;99.90;;;;;;5045012;28;20197;-74
2024/02/18 08:38:42;;;;;;;5.00;3.77;;;8.80;99.90;;;;;;5046834;28;20421;-74
2024/02/18 08:41:08;;;;;;;6.37;4.00;;;8.80;99.90;;;;;;5044712;28;20476;-72
2024/02/18 08:43:33;;;;;;;4.83;3.63;;;8.90;99.90;;;;;;5048378;28;20401;-75
2024/02/18 08:46:00;;;;;;;6.60;4.23;;;8.90;99.90;;;;;;5050741;28;20258;-75
2024/02/18 08:48:25;;;;;;;7.53;3.50;;;8.90;99.90;;;;;;5004734;28;20248;-76
2024/02/18 08:50:51;;;;;;;4.47;3.77;;;8.90;99.90;;;;;;5035658;28;20457;-75
2024/02/18 08:53:17;;;;;;;6.50;3.47;;;9.00;99.90;;;;;;5057634;28;20183;-73
2024/02/18 08:55:42;;;;;;;7.80;4.30;;;9.00;99.90;;;;;;5052563;28;20520;-72
2024/02/18 08:58:08;;;;;;;8.30;4.73;;;9.00;99.90;;;;;;5058181;28;20443;-74
2024/02/18 09:00:34;;;;;;;6.50;3.90;;;9.00;99.90;;;;;;5040627;28;20186;-74
2024/02/18 09:03:00;;;;;;;8.67;3.97;;;9.10;99.90;;;;;;5055661;28;20513;-74
2024/02/18 09:05:26;;;;;;;4.67;2.90;;;9.10;99.90;;;;;;5066928;28;20204;-75
2024/02/18 09:07:52;;;;;;;6.47;3.63;;;9.10;99.90;;;;;;5040713;28;20456;-73
2024/02/18 09:10:18;;;;;;;7.50;3.60;;;9.10;99.90;;;;;;5056417;28;20269;-72
2024/02/18 09:12:44;;;;;;;6.33;3.40;;;9.20;99.90;;;;;;5038444;28;20420;-74
2024/02/18 09:15:10;;;;;;;9.80;3.80;;;9.20;99.90;;;;;;5044548;28;20408;-73
2024/02/18 09:17:39;;;;;;;7.10;4.20;;;9.20;99.90;;;;;;5032260;28;20232;-74
2024/02/18 09:20:06;;;;;;;4.80;2.93;;;9.30;99.90;;;;;;5048352;28;20524;-79
2024/02/18 09:22:32;;;;;;;6.70;3.90;;;9.30;99.90;;;;;;5033481;28;20455;-73
2024/02/18 09:24:58;;;;;;;6.40;3.30;;;9.40;99.90;;;;;;5038942;28;20396;-75
2024/02/18 09:27:25;;;;;;;6.13;4.27;;;9.40;99.90;;;;;;5053021;28;20664;-76
2024/02/18 09:29:51;;;;;;;5.70;3.50;;;9.40;99.90;;;;;;5043462;28;20244;-74
2024/02/18 09:32:17;;;;;;;8.80;3.40;;;9.40;99.90;;;;;;5044308;28;20461;-73
2024/02/18 09:34:42;;;;;;;5.07;3.30;;;9.40;99.90;;;;;;5049020;28;20433;-73
2024/02/18 09:37:08;;;;;;;3.40;2.90;;;9.50;99.90;;;;;;5034977;28;20633;-74
2024/02/18 09:39:33;;;;;;;8.23;3.80;;;9.50;99.90;;;;;;5061068;28;20201;-72
2024/02/18 09:42:07;;;;;;;4.70;3.20;;;9.50;99.90;;;;;;5042617;28;20158;-75
2024/02/18 09:44:35;;;;;;;4.10;3.20;;;9.60;99.90;;;;;;5045390;28;20588;-76
2024/02/18 09:47:05;;;;;;;4.73;3.40;;;9.60;99.90;;;;;;5051894;28;20875;-74
2024/02/18 09:49:32;;;;;;;5.93;3.40;;;9.70;99.90;;;;;;5026584;28;20551;-75
2024/02/18 09:51:59;;;;;;;6.50;3.53;;;9.70;99.90;;;;;;5048046;28;20412;-75
2024/02/18 09:54:25;;;;;;;8.13;4.07;;;9.80;99.90;;;;;;5033287;28;20418;-75
2024/02/18 09:56:52;;;;;;;4.53;2.67;;;9.80;99.90;;;;;;5051660;28;20456;-75
2024/02/18 09:59:18;;;;;;;4.27;2.73;;;9.90;99.90;;;;;;5036246;28;20436;-76
2024/02/18 10:01:48;;;;;;;5.40;3.37;;;9.90;99.90;;;;;;5051413;28;20416;-73
2024/02/18 10:04:14;;;;;;;6.83;3.53;;;10.00;99.90;;;;;;5054398;28;20294;-79
2024/02/18 10:06:40;;;;;;;4.67;2.57;;;10.00;99.90;;;;;;5031645;28;20806;-76
2024/02/18 10:09:07;;;;;;;7.80;3.30;;;10.00;99.90;;;;;;5054156;28;20210;-76
2024/02/18 10:11:33;;;;;;;7.20;3.37;;;10.10;99.90;;;;;;5060832;28;20646;-74
2024/02/18 10:13:59;;;;;;;5.60;2.93;;;10.10;99.90;;;;;;5043810;28;20424;-74
2024/02/18 10:16:26;;;;;;;5.13;2.97;;;10.10;99.90;;;;;;5030309;28;20202;-75
2024/02/18 10:18:53;;;;;;;5.33;2.60;;;10.20;99.90;;;;;;5047857;28;20432;-73
2024/02/18 10:21:19;;;;;;;8.10;2.80;;;10.20;99.90;;;;;;5017948;28;20841;-75
2024/02/18 10:23:46;;;;;;;4.33;2.47;;;10.20;99.90;;;;;;5052837;28;20432;-75
2024/02/18 10:26:12;;;;;;;3.57;2.53;;;10.30;99.90;;;;;;5036748;28;20445;-73
2024/02/18 10:28:40;;;;;;;4.03;3.10;;;10.30;99.90;;;;;;5056685;28;20478;-77
2024/02/18 10:31:09;;;;;;;5.67;2.70;;;10.30;99.90;;;;;;5048061;28;20479;-76
2024/02/18 10:33:36;;;;;;;7.10;2.50;;;10.40;99.90;;;;;;5035232;28;20428;-76
2024/02/18 10:36:11;;;;;;;3.20;2.10;;;10.40;99.90;;;;;;5060293;28;20490;-75
2024/02/18 10:38:44;;;;;;;4.90;2.50;;;10.40;99.90;;;;;;5037297;28;20474;-74
2024/02/18 10:41:16;;;;;;;4.07;2.17;;;10.40;99.90;;;;;;5046766;28;20432;-74
2024/02/18 10:43:52;;;;;;;3.20;2.20;;;10.40;99.90;;;;;;5039465;28;20821;-75
2024/02/18 10:46:23;;;;;;;3.60;2.20;;;10.40;99.90;;;;;;5027910;28;20748;-76
2024/02/18 10:48:56;;;;;;;4.47;2.47;;;10.40;99.90;;;;;;5038231;28;20498;-76
2024/02/18 10:51:26;;;;;;;4.87;2.50;;;10.40;99.90;;;;;;5062602;28;20444;-74
2024/02/18 10:54:04;;;;;;;3.23;2.30;;;10.30;99.90;;;;;;5034521;28;20397;-75
2024/02/18 10:56:31;;;;;;;4.03;2.37;;;10.30;99.90;;;;;;5048651;28;20452;-75
2024/02/18 10:59:13;;;;;;;4.13;2.20;;;10.30;99.90;;;;;;5034600;28;20423;-75
2024/02/18 11:01:51;;;;;;;6.93;2.23;;;10.20;99.90;;;;;;5052899;28;21429;-76
2024/02/18 11:04:17;;;;;;;5.87;2.70;;;10.20;99.90;;;;;;5058052;28;20425;-75
2024/02/18 11:06:43;;;;;;;6.33;2.23;;;10.20;99.90;;;;;;5057837;28;20504;-78
2024/02/18 11:09:11;;;;;;;7.43;2.83;;;10.10;99.90;;;;;;5056280;28;20484;-76
2024/02/18 11:11:38;;;;;;;6.20;2.40;;;10.00;99.90;;;;;;5053447;28;20400;-75
2024/02/18 11:14:09;;;;;;;4.67;2.37;;;9.90;99.90;;;;;;5054605;28;20412;-74
2024/02/18 11:16:36;;;;;;;9.57;2.80;;;9.80;99.90;;;;;;5045231;28;20796;-77
2024/02/18 11:19:02;;;;;;;4.83;2.73;;;9.70;99.90;;;;;;5037197;28;20522;-77
2024/02/18 11:21:30;;;;;;;5.30;2.27;;;9.60;99.90;;;;;;5007283;28;20496;-75
2024/02/18 11:23:56;;;;;;;6.17;2.40;;;9.50;99.90;;;;;;5058594;28;20425;-75
2024/02/18 11:26:22;;;;;;;5.23;2.97;;;9.40;99.90;;;;;;5030341;28;20536;-76
2024/02/18 11:28:48;;;;;;;6.53;2.47;;;9.40;99.90;;;;;;5061961;28;20181;-77
2024/02/18 11:31:21;;;;;;;5.33;3.40;;;9.30;99.90;;;;;;5048963;28;20473;-75
2024/02/18 11:33:47;;;;;;;9.07;3.33;;;9.20;99.90;;;;;;5059340;28;20859;-74
2024/02/18 11:36:14;;;;;;;4.57;3.27;;;9.10;99.90;;;;;;5052626;28;20439;-74
2024/02/18 11:38:46;;;;;;;10.07;3.73;;;9.10;99.90;;;;;;5041242;28;20198;-74
2024/02/18 11:41:38;;;;;;;5.40;2.73;;;9.10;99.90;;;;;;5008205;28;20856;-73
2024/02/18 11:44:11;;;;;;;3.90;2.30;;;9.10;99.90;;;;;;5020480;28;20493;-75
2024/02/18 11:46:43;;;;;;;3.83;2.30;;;9.20;99.90;;;;;;5026069;28;20827;-75
2024/02/18 11:49:09;;;;;;;2.80;2.17;;;9.40;99.90;;;;;;5051458;28;20490;-78
2024/02/18 11:51:36;;;;;;;5.37;2.30;;;9.50;99.90;;;;;;5035500;28;20448;-76
2024/02/18 11:54:04;;;;;;;5.53;1.77;;;9.60;99.90;;;;;;5045132;28;20233;-76
2024/02/18 11:56:29;;;;;;;5.43;3.23;;;9.70;99.90;;;;;;5042117;28;20930;-75
2024/02/18 11:58:55;;;;;;;6.53;2.50;;;9.70;99.90;;;;;;5056116;28;20409;-76
2024/02/18 12:01:21;;;;;;;4.03;2.47;;;9.80;99.90;;;;;;5030794;28;20181;-75
2024/02/18 12:03:47;;;;;;;5.20;2.90;;;9.70;99.90;;;;;;5049812;28;20255;-74
2024/02/18 12:06:13;;;;;;;5.30;3.00;;;9.70;99.90;;;;;;5054498;28;20205;-77
2024/02/18 12:08:40;;;;;;;5.00;2.43;;;9.60;99.90;;;;;;5055525;28;20861;-75
2024/02/18 12:11:06;;;;;;;6.70;2.97;;;9.50;99.90;;;;;;5012740;28;20455;-78
2024/02/18 12:13:33;;;;;;;7.63;2.80;;;9.40;99.90;;;;;;5039278;28;20420;-77
2024/02/18 12:16:00;;;;;;;8.43;2.60;;;9.30;99.90;;;;;;5033528;28;20213;-75
2024/02/18 12:18:27;;;;;;;5.93;2.57;;;9.20;99.90;;;;;;5056282;28;20439;-74
2024/02/18 12:20:53;;;;;;;3.87;2.40;;;9.10;99.90;;;;;;5058212;28;20456;-75
2024/02/18 12:23:23;;;;;;;4.90;2.30;;;9.00;99.90;;;;;;5040026;28;20420;-75
2024/02/18 12:25:49;;;;;;;5.83;2.77;;;9.00;99.90;;;;;;5054008;28;20453;-77
2024/02/18 12:28:16;;;;;;;4.73;3.03;;;8.80;99.90;;;;;;5018178;28;20414;-77
2024/02/18 12:30:45;;;;;;;4.67;3.30;;;8.80;99.90;;;;;;5040240;28;20455;-75
2024/02/18 12:33:15;;;;;;;5.00;2.80;;;8.80;99.90;;;;;;5057907;28;20425;-75
2024/02/18 12:35:41;;;;;;;8.40;3.30;;;8.80;99.90;;;;;;5056934;28;20760;-74
2024/02/18 12:38:08;;;;;;;4.33;2.83;;;8.80;99.90;;;;;;5058194;28;20476;-75
2024/02/18 12:40:35;;;;;;;3.73;2.70;;;8.70;99.90;;;;;;5064377;28;20503;-74
2024/02/18 12:43:01;;;;;;;3.80;2.87;;;8.70;99.90;;;;;;5053102;28;20552;-78
2024/02/18 12:45:31;;;;;;;3.30;2.53;;;8.70;99.90;;;;;;5061572;28;20436;-76
2024/02/18 12:47:59;;;;;;;5.10;3.20;;;8.70;99.90;;;;;;5026210;28;20452;-76
2024/02/18 12:50:27;;;;;;;5.10;2.53;;;8.60;99.90;;;;;;5053237;28;20461;-74